createdAt,value
2024-02-19T00:01:42.902Z,-139.71
2024-02-19T00:04:09.375Z,-139.71
2024-02-19T00:06:35.707Z,-139.71
2024-02-19T00:09:01.975Z,-139.71
2024-02-19T00:11:28.295Z,-139.71
2024-02-19T00:13:54.498Z,-139.71
2024-02-19T00:16:20.816Z,-139.71
2024-02-19T00:18:47.254Z,-139.71
2024-02-19T00:21:13.557Z,-139.71
2024-02-19T00:23:39.770Z,-139.71
2024-02-19T00:26:05.961Z,-139.71
2024-02-19T00:28:32.191Z,-139.71
2024-02-19T00:30:58.502Z,-139.71
2024-02-19T00:33:24.917Z,-139.71
2024-02-19T00:35:51.223Z,-139.71
2024-02-19T00:38:17.477Z,-139.71
2024-02-19T00:40:43.725Z,-139.71
2024-02-19T00:43:10.060Z,-139.71
2024-02-19T00:45:36.333Z,-139.71
2024-02-19T00:48:02.641Z,-139.71
2024-02-19T00:50:28.920Z,-139.71
2024-02-19T00:52:55.153Z,-139.71
2024-02-19T00:55:21.496Z,-139.71
2024-02-19T00:57:47.774Z,-139.71
2024-02-19T01:00:13.997Z,-139.71
2024-02-19T01:02:40.184Z,-139.71
2024-02-19T01:05:06.590Z,-139.71
2024-02-19T01:07:43.424Z,-139.71
2024-02-19T01:10:18.743Z,-139.71
2024-02-19T01:13:00.812Z,-139.71
2024-02-19T01:15:27.081Z,-139.71
2024-02-19T01:17:53.327Z,-139.71
2024-02-19T01:20:19.565Z,-139.71
2024-02-19T01:22:45.784Z,-139.71
2024-02-19T01:25:12.135Z,-139.71
2024-02-19T01:27:38.398Z,-139.71
2024-02-19T01:30:04.637Z,-139.71
2024-02-19T01:32:30.892Z,-139.71
2024-02-19T01:35:00.054Z,-139.71
2024-02-19T01:37:26.497Z,-139.71
2024-02-19T01:39:52.774Z,-139.71
2024-02-19T01:42:19.051Z,-139.71
2024-02-19T01:44:45.287Z,-139.71
2024-02-19T01:47:11.493Z,-139.71
2024-02-19T01:49:40.304Z,-139.71
2024-02-19T01:52:06.667Z,-139.71
2024-02-19T01:54:32.945Z,-139.71
2024-02-19T01:56:59.148Z,-139.71
2024-02-19T01:59:25.346Z,-139.71
2024-02-19T02:01:51.791Z,-139.71
2024-02-19T02:04:18.100Z,-139.71
2024-02-19T02:06:44.362Z,-139.71
2024-02-19T02:09:10.595Z,-139.71
2024-02-19T02:11:36.795Z,-139.71
2024-02-19T02:14:03.063Z,-139.71
2024-02-19T02:16:29.277Z,-139.71
2024-02-19T02:18:55.854Z,-139.71
2024-02-19T02:21:22.197Z,-139.71
2024-02-19T02:23:48.406Z,-139.71
2024-02-19T02:26:14.891Z,-139.71
2024-02-19T02:28:41.104Z,-139.71
2024-02-19T02:31:07.304Z,-139.71
2024-02-19T02:33:33.657Z,-139.71
2024-02-19T02:35:59.963Z,-139.71
2024-02-19T02:38:31.967Z,-139.71
2024-02-19T02:40:58.217Z,-139.71
2024-02-19T02:43:24.515Z,-139.71
2024-02-19T02:45:53.394Z,-139.71
2024-02-19T02:48:19.951Z,-139.71
2024-02-19T02:50:46.182Z,-139.71
2024-02-19T02:53:12.404Z,-139.71
2024-02-19T02:55:38.647Z,-139.71
2024-02-19T02:58:04.967Z,-139.71
2024-02-19T03:00:31.238Z,-139.71
2024-02-19T03:02:57.451Z,-139.71
2024-02-19T03:05:23.649Z,-139.71
2024-02-19T03:07:49.936Z,-139.71
2024-02-19T03:10:16.234Z,-139.71
2024-02-19T03:12:42.489Z,-139.71
2024-02-19T03:15:08.757Z,-139.71
2024-02-19T03:17:34.974Z,-139.71
2024-02-19T03:20:01.273Z,-139.71
2024-02-19T03:22:27.551Z,-139.71
2024-02-19T03:24:53.893Z,-139.71
2024-02-19T03:27:20.117Z,-139.71
2024-02-19T03:29:46.346Z,-139.71
2024-02-19T03:32:12.575Z,-139.71
2024-02-19T03:34:38.916Z,-139.71
2024-02-19T03:37:05.267Z,-139.71
2024-02-19T03:39:31.533Z,-139.71
2024-02-19T03:41:57.758Z,-139.71
2024-02-19T03:44:24.042Z,-139.71
2024-02-19T03:46:50.271Z,-139.71
2024-02-19T03:49:16.685Z,-139.71
2024-02-19T03:51:43.033Z,-139.71
2024-02-19T03:54:10.541Z,-139.71
2024-02-19T03:56:37.714Z,-139.71
2024-02-19T03:59:03.949Z,-139.71
2024-02-19T04:01:30.251Z,-139.71
2024-02-19T04:03:56.690Z,-139.71
2024-02-19T04:06:23.056Z,-139.71
2024-02-19T04:08:49.278Z,-139.71
2024-02-19T04:11:15.533Z,-139.71
2024-02-19T04:13:41.720Z,-139.71
2024-02-19T04:16:08.039Z,-139.71
2024-02-19T04:18:34.310Z,-139.71
2024-02-19T04:21:00.577Z,-139.71
2024-02-19T04:23:26.881Z,-139.71
2024-02-19T04:25:53.115Z,-139.71
2024-02-19T04:28:19.381Z,-139.71
2024-02-19T04:30:45.717Z,-139.71
2024-02-19T04:33:12.015Z,-139.71
2024-02-19T04:35:38.264Z,-139.71
2024-02-19T04:38:04.501Z,-139.71
2024-02-19T04:40:30.738Z,-139.71
2024-02-19T04:42:57.022Z,-139.71
2024-02-19T04:45:24.376Z,-139.71
2024-02-19T04:47:50.602Z,-139.71
2024-02-19T04:50:16.961Z,-139.71
2024-02-19T04:52:43.357Z,-139.71
2024-02-19T04:55:09.642Z,-139.71
2024-02-19T04:57:35.910Z,-139.71
2024-02-19T05:00:02.122Z,-139.71
2024-02-19T05:02:28.388Z,-139.71
2024-02-19T05:04:54.708Z,-139.71
2024-02-19T05:07:21.271Z,-139.71
2024-02-19T05:09:47.811Z,-139.71
2024-02-19T05:12:14.031Z,-139.71
2024-02-19T05:14:40.310Z,-139.71
2024-02-19T05:17:06.514Z,-139.71
2024-02-19T05:19:32.825Z,-139.71
2024-02-19T05:21:59.145Z,-139.71
2024-02-19T05:24:27.887Z,-139.71
2024-02-19T05:26:54.103Z,-139.71
2024-02-19T05:29:20.316Z,-139.71
2024-02-19T05:31:46.547Z,-139.71
2024-02-19T05:34:12.881Z,-139.71
2024-02-19T05:36:39.363Z,-139.71
2024-02-19T05:39:05.844Z,-139.71
2024-02-19T05:41:32.099Z,-139.71
2024-02-19T05:43:58.315Z,-139.71
2024-02-19T05:46:24.653Z,-139.71
2024-02-19T05:48:50.963Z,-139.71
2024-02-19T05:51:17.230Z,-139.71
2024-02-19T05:53:43.541Z,-139.71
2024-02-19T06:01:49.948Z,-139.71
2024-02-19T06:04:16.339Z,-139.71
2024-02-19T06:06:42.759Z,-139.71
2024-02-19T06:09:09.105Z,-139.71
2024-02-19T06:11:35.337Z,-139.71
2024-02-19T06:14:01.582Z,-139.71
2024-02-19T06:16:27.851Z,-139.71
2024-02-19T06:18:54.359Z,-139.71
2024-02-19T06:21:20.735Z,-139.71
2024-02-19T06:23:46.968Z,-139.71
2024-02-19T06:26:13.170Z,-139.71
2024-02-19T06:28:39.427Z,-139.71
2024-02-19T06:31:05.694Z,-139.71
2024-02-19T06:33:32.063Z,-139.71
2024-02-19T06:35:58.376Z,-139.71
2024-02-19T06:38:24.585Z,-139.71
2024-02-19T06:40:50.865Z,-139.71
2024-02-19T06:43:17.155Z,-139.71
2024-02-19T06:45:43.456Z,-139.71
2024-02-19T06:48:09.742Z,-139.71
2024-02-19T06:50:36.011Z,-139.71
2024-02-19T06:53:02.197Z,-139.71
2024-02-19T06:55:28.447Z,-139.71
2024-02-19T06:57:54.761Z,-139.71
2024-02-19T07:00:20.994Z,-139.71
2024-02-19T07:02:47.263Z,-139.71
2024-02-19T07:05:13.606Z,-139.71
2024-02-19T07:07:39.904Z,-139.71
2024-02-19T07:10:06.230Z,-139.71
2024-02-19T07:12:32.466Z,-139.71
2024-02-19T07:14:58.722Z,-139.71
2024-02-19T07:17:24.929Z,-139.71
2024-02-19T07:19:51.309Z,-139.71
2024-02-19T07:22:17.755Z,-139.71
2024-02-19T07:24:44.051Z,-139.71
2024-02-19T07:27:13.222Z,-139.71
2024-02-19T07:29:39.466Z,-139.71
2024-02-19T07:32:05.740Z,-139.71
2024-02-19T07:34:32.161Z,-139.71
2024-02-19T07:36:58.476Z,-139.71
2024-02-19T07:39:24.716Z,-139.71
2024-02-19T07:41:50.934Z,-139.71
2024-02-19T07:44:17.163Z,-139.71
2024-02-19T07:46:43.410Z,-139.71
2024-02-19T07:49:09.752Z,-139.71
2024-02-19T07:51:36.163Z,-139.71
2024-02-19T07:54:06.181Z,-139.71
2024-02-19T07:56:32.454Z,-139.71
2024-02-19T07:58:58.685Z,-139.71
2024-02-19T08:01:24.997Z,-139.71
2024-02-19T08:03:52.058Z,-139.71
2024-02-19T08:06:18.349Z,-139.71
2024-02-19T08:08:47.407Z,-139.71
2024-02-19T08:11:13.663Z,-139.71
2024-02-19T08:13:39.980Z,-139.71
2024-02-19T08:16:07.593Z,-139.71
2024-02-19T08:18:34.000Z,-139.71
2024-02-19T08:21:07.025Z,-139.71
2024-02-19T08:23:33.259Z,-139.71
2024-02-19T08:25:59.582Z,-139.71
2024-02-19T08:28:25.878Z,-139.71
2024-02-19T08:30:52.168Z,-139.71
2024-02-19T08:33:18.452Z,-139.71
2024-02-19T08:35:44.849Z,-139.71
2024-02-19T08:38:14.236Z,-139.71
2024-02-19T08:40:40.605Z,-139.71
2024-02-19T08:43:06.892Z,-139.71
2024-02-19T08:45:36.812Z,-139.71
2024-02-19T08:48:03.742Z,-139.71
2024-02-19T08:50:32.949Z,-139.71
2024-02-19T08:52:59.176Z,-139.71
2024-02-19T08:55:25.554Z,-139.71
2024-02-19T08:57:51.819Z,-139.71
2024-02-19T09:00:18.083Z,-139.71
2024-02-19T09:02:44.400Z,-139.71
2024-02-19T09:05:10.706Z,-139.71
2024-02-19T09:07:38.036Z,-139.71
2024-02-19T09:10:04.358Z,-139.71
2024-02-19T09:12:30.601Z,-139.71
2024-02-19T09:14:56.832Z,-139.71
2024-02-19T09:17:23.065Z,-139.71
2024-02-19T09:19:49.420Z,-139.71
2024-02-19T09:22:15.758Z,-139.71
2024-02-19T09:24:42.038Z,-139.71
2024-02-19T09:27:08.316Z,-139.71
2024-02-19T09:29:36.219Z,-139.71
2024-02-19T09:32:02.806Z,-139.71
2024-02-19T09:34:29.158Z,-139.71
2024-02-19T09:36:55.476Z,-139.71
2024-02-19T09:39:21.911Z,-139.71
2024-02-19T09:41:48.166Z,-139.71
2024-02-19T09:44:14.412Z,-139.71
2024-02-19T09:46:41.344Z,-139.71
2024-02-19T09:49:07.803Z,-139.71
2024-02-19T09:51:40.703Z,-139.71
2024-02-19T09:54:07.567Z,-139.71
2024-02-19T09:56:33.791Z,-139.71
2024-02-19T09:59:00.037Z,-139.71
2024-02-19T10:01:26.361Z,-139.71
2024-02-19T10:03:55.121Z,-139.71
2024-02-19T10:06:21.796Z,-139.71
2024-02-19T10:08:48.208Z,-139.71
2024-02-19T10:11:14.436Z,-139.71
2024-02-19T10:13:40.671Z,-139.71
2024-02-19T10:16:07.402Z,-139.71
2024-02-19T10:18:33.843Z,-139.71
2024-02-19T10:21:00.190Z,-139.71
2024-02-19T10:23:26.459Z,-139.71
2024-02-19T10:25:52.684Z,-139.71
2024-02-19T10:28:18.939Z,-139.71
2024-02-19T10:30:45.209Z,-139.71
2024-02-19T10:33:11.556Z,-139.71
2024-02-19T10:35:37.882Z,-139.71
2024-02-19T10:38:04.084Z,-139.71
2024-02-19T10:43:22.172Z,-139.71
2024-02-19T10:45:48.455Z,-139.71
2024-02-19T10:48:14.776Z,-139.71
2024-02-19T10:50:41.020Z,-139.71
2024-02-19T10:53:07.201Z,-139.71
2024-02-19T10:55:42.245Z,-139.71
2024-02-19T10:58:16.456Z,-139.71
2024-02-19T11:00:43.194Z,-139.71
2024-02-19T11:03:09.580Z,-139.71
2024-02-19T11:05:35.929Z,-139.71
2024-02-19T11:08:02.185Z,-139.71
2024-02-19T11:10:28.459Z,-139.71
2024-02-19T11:12:54.829Z,-139.71
2024-02-19T11:15:21.106Z,-139.71
2024-02-19T11:17:47.375Z,-139.71
2024-02-19T11:20:13.665Z,-139.71
2024-02-19T11:22:39.918Z,-139.71
2024-02-19T11:25:06.200Z,-139.71
2024-02-19T11:27:32.432Z,-139.71
2024-02-19T11:29:58.692Z,-139.71
2024-02-19T11:32:25.010Z,-139.71
2024-02-19T11:34:52.026Z,-139.71
2024-02-19T11:37:19.026Z,-139.71
2024-02-19T11:39:48.299Z,-139.71
2024-02-19T11:42:14.579Z,-139.71
2024-02-19T11:44:40.837Z,-139.71
2024-02-19T11:47:07.082Z,-139.71
2024-02-19T11:49:35.862Z,-139.71
2024-02-19T11:52:08.277Z,-139.71
2024-02-19T11:54:37.777Z,-139.71
2024-02-19T11:57:03.985Z,-139.71
2024-02-19T11:59:30.207Z,-139.71
2024-02-19T12:01:56.546Z,-139.71
2024-02-19T12:04:22.848Z,-139.71
2024-02-19T12:06:49.169Z,-139.71
2024-02-19T12:09:15.429Z,-139.71
2024-02-19T12:11:41.704Z,-139.71
2024-02-19T12:14:07.918Z,-139.71
2024-02-19T12:16:34.212Z,-139.71
2024-02-19T12:19:01.289Z,-139.71
2024-02-19T12:21:27.992Z,-139.71
2024-02-19T12:23:54.200Z,-139.71
2024-02-19T12:26:20.457Z,-139.71
2024-02-19T12:28:46.671Z,-139.71
2024-02-19T12:31:12.911Z,-139.71
2024-02-19T12:33:39.619Z,-139.71
2024-02-19T12:36:06.193Z,-139.71
2024-02-19T12:38:32.549Z,-139.71
2024-02-19T12:40:58.862Z,-139.71
2024-02-19T12:43:25.099Z,-139.71
2024-02-19T12:45:51.530Z,-139.71
2024-02-19T12:48:17.855Z,-139.71
2024-02-19T12:50:44.177Z,-139.71
2024-02-19T12:53:10.382Z,-139.71
2024-02-19T12:55:36.634Z,-139.71
2024-02-19T12:58:02.938Z,-139.71
2024-02-19T13:00:29.162Z,-139.71
2024-02-19T13:02:55.420Z,-139.71
2024-02-19T13:05:21.783Z,-139.71
2024-02-19T13:07:48.091Z,-139.71
2024-02-19T13:10:14.354Z,-139.71
2024-02-19T13:12:40.573Z,-139.71
2024-02-19T13:15:06.787Z,-139.71
2024-02-19T13:17:40.022Z,-139.71
2024-02-19T13:20:09.623Z,-139.71
2024-02-19T13:22:35.909Z,-139.71
2024-02-19T13:25:02.230Z,-139.71
2024-02-19T13:27:28.486Z,-139.71
2024-02-19T13:29:54.748Z,-139.71
2024-02-19T13:32:20.995Z,-139.71
2024-02-19T13:34:47.273Z,-139.71
2024-02-19T13:37:13.627Z,-139.71
2024-02-19T13:39:39.891Z,-139.71
2024-02-19T13:42:06.147Z,-139.71
2024-02-19T13:44:32.416Z,-139.71
2024-02-19T13:46:58.689Z,-139.71
2024-02-19T13:49:25.088Z,-139.71
2024-02-19T13:51:51.501Z,-139.71
2024-02-19T13:54:17.821Z,-139.71
2024-02-19T13:56:44.048Z,-139.71
2024-02-19T13:59:10.280Z,-139.71
2024-02-19T14:01:39.494Z,-139.71
2024-02-19T14:04:16.901Z,-139.71
2024-02-19T14:06:43.266Z,-139.71
2024-02-19T14:09:09.545Z,-139.71
2024-02-19T14:11:36.093Z,-139.71
2024-02-19T14:14:03.545Z,-139.71
2024-02-19T14:16:30.542Z,-139.71
2024-02-19T14:18:57.099Z,-139.71
2024-02-19T14:21:23.424Z,-139.71
2024-02-19T14:23:49.714Z,-139.71
2024-02-19T14:26:15.934Z,-139.71
2024-02-19T14:28:42.281Z,-139.71
2024-02-19T14:31:08.752Z,-139.71
2024-02-19T14:33:35.034Z,-139.71
2024-02-19T14:36:01.469Z,-139.71
2024-02-19T14:38:27.863Z,-139.71
2024-02-19T14:40:54.200Z,-139.71
2024-02-19T14:43:20.533Z,-139.71
2024-02-19T14:45:49.593Z,-139.71
2024-02-19T14:48:16.079Z,-139.71
2024-02-19T14:50:42.591Z,-139.71
2024-02-19T14:53:08.924Z,-139.71
2024-02-19T14:55:35.339Z,-139.71
2024-02-19T14:58:01.725Z,-139.71
2024-02-19T15:00:27.954Z,-139.71
2024-02-19T15:02:54.210Z,-139.71
2024-02-19T15:05:20.795Z,-139.71
2024-02-19T15:07:47.218Z,-139.71
2024-02-19T15:10:13.583Z,-139.71
2024-02-19T15:12:39.958Z,-139.71
2024-02-19T15:15:06.217Z,-139.71
2024-02-19T15:17:32.613Z,-139.71
2024-02-19T15:19:58.871Z,-139.71
2024-02-19T15:22:25.219Z,-139.71
2024-02-19T15:24:51.603Z,-139.71
2024-02-19T15:27:17.870Z,-139.71
2024-02-19T15:29:44.100Z,-139.71
2024-02-19T15:32:10.295Z,-139.71
2024-02-19T15:34:36.668Z,-139.71
2024-02-19T15:37:03.009Z,-139.71
2024-02-19T15:39:29.249Z,-139.71
2024-02-19T15:41:55.458Z,-139.71
2024-02-19T15:44:21.718Z,-139.71
2024-02-19T15:46:48.045Z,-139.71
2024-02-19T15:49:14.359Z,-139.71
2024-02-19T15:51:40.634Z,-139.71
2024-02-19T15:54:06.866Z,-139.71
2024-02-19T15:56:33.062Z,-139.71
2024-02-19T15:58:59.260Z,-139.71
2024-02-19T16:01:25.802Z,-139.71
2024-02-19T16:03:52.082Z,-139.71
2024-02-19T16:06:18.511Z,-139.71
2024-02-19T16:08:44.816Z,-139.71
2024-02-19T16:11:11.205Z,-139.71
2024-02-19T16:13:37.726Z,-139.71
2024-02-19T16:16:04.108Z,-139.71
2024-02-19T16:18:30.353Z,-139.71
2024-02-19T16:20:58.314Z,-139.71
2024-02-19T16:23:24.603Z,-139.71
2024-02-19T16:25:50.811Z,-139.71
2024-02-19T16:28:17.259Z,-139.71
2024-02-19T16:30:43.565Z,-139.71
2024-02-19T16:33:09.801Z,-139.71
2024-02-19T16:35:36.087Z,-139.71
2024-02-19T16:38:02.316Z,-139.71
2024-02-19T16:40:28.654Z,-139.71
2024-02-19T16:42:55.359Z,-139.71
2024-02-19T16:45:21.579Z,-139.71
2024-02-19T16:47:47.871Z,-139.71
2024-02-19T16:50:14.172Z,-139.71
2024-02-19T16:52:40.458Z,-139.71
2024-02-19T16:55:06.711Z,-139.71
2024-02-19T16:57:33.028Z,-139.71
2024-02-19T16:59:59.221Z,-139.71
2024-02-19T17:02:25.452Z,-139.71
2024-02-19T17:04:51.823Z,-139.71
2024-02-19T17:07:18.399Z,-139.71
2024-02-19T17:09:44.811Z,-139.71
2024-02-19T17:12:11.217Z,-139.71
2024-02-19T17:14:37.428Z,-139.71
2024-02-19T17:17:03.617Z,-139.71
2024-02-19T17:19:29.963Z,-139.71
2024-02-19T17:21:56.400Z,-139.71
2024-02-19T17:24:22.663Z,-139.71
2024-02-19T17:26:48.911Z,-139.71
2024-02-19T17:29:15.119Z,-139.71
2024-02-19T17:31:41.362Z,-139.71
2024-02-19T17:34:07.926Z,-139.71
2024-02-19T17:36:34.240Z,-139.71
2024-02-19T17:39:00.555Z,-139.71
2024-02-19T17:41:26.762Z,-139.71
2024-02-19T17:43:52.970Z,-139.71
2024-02-19T17:46:19.257Z,-139.71
2024-02-19T17:48:45.647Z,-139.71
2024-02-19T17:51:12.055Z,-139.71
2024-02-19T17:53:38.361Z,-139.71
2024-02-19T17:56:04.545Z,-139.71
2024-02-19T17:58:30.898Z,-139.71
2024-02-19T18:00:57.432Z,-139.71
2024-02-19T18:03:23.726Z,-139.71
2024-02-19T18:05:50.022Z,-139.71
2024-02-19T18:08:16.376Z,-139.71
2024-02-19T18:10:42.624Z,-139.71
2024-02-19T18:13:08.987Z,-139.71
2024-02-19T18:15:35.220Z,-139.71
2024-02-19T18:18:01.578Z,-139.71
2024-02-19T18:20:27.932Z,-139.71
2024-02-19T18:22:54.211Z,-139.71
2024-02-19T18:25:20.635Z,-139.71
2024-02-19T18:27:47.166Z,-139.71
2024-02-19T18:33:08.732Z,-139.71
2024-02-19T18:44:07.219Z,-139.71
2024-02-19T18:46:33.549Z,-139.71
2024-02-19T18:48:59.915Z,-139.71
2024-02-19T18:51:26.229Z,-139.71
2024-02-19T18:53:55.584Z,-139.71
2024-02-19T18:56:21.915Z,-139.71
2024-02-19T18:58:48.129Z,-139.71
2024-02-19T19:01:14.464Z,-139.71
2024-02-19T19:03:40.730Z,-139.71
2024-02-19T19:06:07.029Z,-139.71
2024-02-19T19:08:33.276Z,-139.71
2024-02-19T19:10:59.534Z,-139.71
2024-02-19T19:13:25.840Z,-139.71
2024-02-19T19:15:52.201Z,-139.71
2024-02-19T19:18:18.612Z,-139.71
2024-02-19T19:20:44.959Z,-139.71
2024-02-19T19:23:11.296Z,-139.71
2024-02-19T19:25:37.621Z,-139.71
2024-02-19T19:28:03.961Z,-139.71
2024-02-19T19:30:30.216Z,-139.71
2024-02-19T19:32:56.450Z,-139.71
2024-02-19T19:35:22.892Z,-139.71
2024-02-19T19:37:49.211Z,-139.71
2024-02-19T19:40:15.526Z,-139.71
2024-02-19T19:42:41.806Z,-139.71
2024-02-19T19:45:08.062Z,-139.71
2024-02-19T19:47:34.383Z,-139.71
2024-02-19T19:50:00.738Z,-139.71
2024-02-19T19:52:26.994Z,-139.71
2024-02-19T19:54:54.657Z,-139.71
2024-02-19T19:57:24.130Z,-139.71
2024-02-19T19:59:51.240Z,-139.71
2024-02-19T20:02:17.589Z,-139.71
2024-02-19T20:04:44.502Z,-139.71
2024-02-19T20:07:10.872Z,-139.71
2024-02-19T20:09:37.151Z,-139.71
2024-02-19T20:12:03.410Z,-139.71
2024-02-19T20:14:29.639Z,-139.71
2024-02-19T20:16:55.906Z,-139.71
2024-02-19T20:19:22.171Z,-139.71
2024-02-19T20:21:48.553Z,-139.71
2024-02-19T20:24:14.859Z,-139.71
2024-02-19T20:26:41.138Z,-139.71
2024-02-19T20:29:07.381Z,-139.71
2024-02-19T20:31:33.810Z,-139.71
2024-02-19T20:34:03.200Z,-139.71
2024-02-19T20:36:35.130Z,-139.71
2024-02-19T20:39:02.950Z,-139.71
2024-02-19T20:41:32.323Z,-139.71
2024-02-19T20:44:02.557Z,-139.71
2024-02-19T20:46:32.562Z,-139.71
2024-02-19T20:48:59.232Z,-139.71
2024-02-19T20:51:25.702Z,-139.71
2024-02-19T20:53:51.936Z,-139.71
2024-02-19T21:01:51.578Z,-139.71
2024-02-19T21:04:19.149Z,-139.71
2024-02-19T21:06:47.248Z,-139.71
2024-02-19T21:09:13.628Z,-139.71
2024-02-19T21:11:39.935Z,-139.71
2024-02-19T21:14:07.243Z,-139.71
2024-02-19T21:16:36.380Z,-139.71
2024-02-19T21:19:05.386Z,-139.71
2024-02-19T21:21:35.178Z,-139.71
2024-02-19T21:24:02.114Z,-139.71
2024-02-19T21:26:28.418Z,-139.71
2024-02-19T21:28:54.757Z,-139.71
2024-02-19T21:31:21.104Z,-139.71
2024-02-19T21:33:50.284Z,-139.71
2024-02-19T21:36:18.698Z,-139.71
2024-02-19T21:38:49.914Z,-139.71
2024-02-19T21:41:18.647Z,-139.71
2024-02-19T21:43:45.242Z,-139.71
2024-02-19T21:46:11.583Z,-139.71
2024-02-19T21:48:38.044Z,-139.71
2024-02-19T21:51:04.534Z,-139.71
2024-02-19T21:53:30.802Z,-139.71
2024-02-19T21:55:57.032Z,-139.71
2024-02-19T21:58:23.285Z,-139.71
2024-02-19T22:00:49.696Z,-139.71
2024-02-19T22:03:15.975Z,-139.71
2024-02-19T22:05:42.268Z,-139.71
2024-02-19T22:08:25.170Z,-139.71
2024-02-19T22:13:42.917Z,-139.71
2024-02-19T22:16:09.367Z,-139.71
2024-02-19T22:18:38.803Z,-139.71
2024-02-19T22:21:06.444Z,-139.71
2024-02-19T22:23:32.750Z,-139.71
2024-02-19T22:25:58.965Z,-139.71
2024-02-19T22:28:25.250Z,-139.71
2024-02-19T22:30:51.556Z,-139.71
2024-02-19T22:33:17.847Z,-139.71
2024-02-19T22:35:44.158Z,-139.71
2024-02-19T22:38:10.413Z,-139.71
2024-02-19T22:40:36.806Z,-139.71
2024-02-19T22:43:03.190Z,-139.71
2024-02-19T22:45:29.464Z,-139.71
2024-02-19T22:47:55.856Z,-139.71
2024-02-19T22:50:22.161Z,-139.71
2024-02-19T22:52:50.871Z,-139.71
2024-02-19T22:55:17.571Z,-139.71
2024-02-19T22:57:43.850Z,-139.71
2024-02-19T23:00:10.241Z,-139.71
2024-02-19T23:02:36.430Z,-139.71
2024-02-19T23:05:22.919Z,9.25
2024-02-19T23:07:49.224Z,9.17
2024-02-19T23:10:15.490Z,9.14
2024-02-19T23:12:41.744Z,9.13
2024-02-19T23:15:07.978Z,9.13
2024-02-19T23:17:34.233Z,9.21
2024-02-19T23:20:00.568Z,9.22
2024-02-19T23:22:26.964Z,9.23
2024-02-19T23:24:53.502Z,9.17
2024-02-19T23:27:19.751Z,9.19
2024-02-19T23:29:45.985Z,9.13
2024-02-19T23:32:18.388Z,9.09
2024-02-19T23:34:44.670Z,9.02
2024-02-19T23:37:10.978Z,9.04
2024-02-19T23:39:37.236Z,9.01
2024-02-19T23:42:03.489Z,8.96
2024-02-19T23:44:29.733Z,9.00
2024-02-19T23:46:55.928Z,8.96
2024-02-19T23:49:22.288Z,8.87
2024-02-19T23:51:48.564Z,8.82
2024-02-19T23:54:14.779Z,8.76
2024-02-19T23:56:41.003Z,8.68
2024-02-19T23:59:07.221Z,8.69
